createdAt,value
2022-09-12T00:00:28.652Z,13.07
2022-09-12T00:02:55.815Z,12.35
2022-09-12T00:05:22.798Z,11.60
2022-09-12T00:07:49.861Z,12.23
2022-09-12T00:10:17.632Z,11.88
2022-09-12T00:12:44.654Z,11.25
2022-09-12T00:15:12.073Z,12.48
2022-09-12T00:17:39.600Z,12.50
2022-09-12T00:20:09.121Z,12.52
2022-09-12T00:22:36.875Z,12.65
2022-09-12T00:25:04.908Z,12.23
2022-09-12T00:27:31.774Z,12.80
2022-09-12T00:29:58.566Z,12.55
2022-09-12T00:32:25.336Z,13.02
2022-09-12T00:34:52.241Z,12.73
2022-09-12T00:37:18.989Z,12.73
2022-09-12T00:39:45.918Z,12.30
2022-09-12T00:42:13.107Z,12.38
2022-09-12T00:44:46.229Z,12.15
2022-09-12T00:47:28.685Z,12.23
2022-09-12T00:50:07.964Z,12.68
2022-09-12T00:52:46.995Z,12.90
2022-09-12T00:55:19.633Z,12.40
2022-09-12T00:57:54.557Z,11.70
2022-09-12T01:00:24.564Z,11.18
2022-09-12T01:03:02.031Z,13.45
2022-09-12T01:05:31.349Z,12.13
2022-09-12T01:07:59.542Z,11.93
2022-09-12T01:10:26.404Z,12.60
2022-09-12T01:12:53.153Z,11.90
2022-09-12T01:15:19.917Z,11.93
2022-09-12T01:18:10.757Z,9.98
2022-09-12T01:20:55.798Z,10.10
2022-09-12T01:24:00.759Z,9.85
2022-09-12T01:26:54.893Z,9.48
2022-09-12T01:29:30.671Z,9.98
2022-09-12T01:32:12.855Z,8.98
2022-09-12T01:34:49.243Z,9.00
2022-09-12T01:37:21.983Z,8.00
2022-09-12T01:40:03.424Z,7.97
2022-09-12T01:42:35.531Z,7.13
2022-09-12T01:45:39.020Z,7.15
2022-09-12T01:48:18.319Z,5.32
2022-09-12T01:50:54.513Z,5.57
2022-09-12T01:53:27.690Z,4.50
2022-09-12T01:56:08.998Z,4.22
2022-09-12T01:59:00.008Z,3.97
2022-09-12T02:01:35.751Z,3.60
2022-09-12T02:04:41.158Z,3.60
2022-09-12T02:07:21.517Z,3.92
2022-09-12T02:10:00.701Z,4.13
2022-09-12T02:12:31.887Z,3.92
2022-09-12T02:15:03.773Z,3.60
2022-09-12T02:17:38.254Z,4.07
2022-09-12T02:20:46.494Z,4.03
2022-09-12T02:23:15.871Z,3.78
2022-09-12T02:25:46.890Z,3.58
2022-09-12T02:28:22.915Z,3.90
2022-09-12T02:30:59.438Z,4.30
2022-09-12T02:33:57.395Z,3.58
2022-09-12T02:36:56.916Z,3.15
2022-09-12T02:39:24.696Z,3.53
2022-09-12T02:41:53.148Z,3.67
2022-09-12T02:44:20.730Z,4.63
2022-09-12T02:46:52.781Z,3.75
2022-09-12T02:49:20.389Z,3.58
2022-09-12T02:51:48.847Z,3.10
2022-09-12T02:54:18.046Z,3.17
2022-09-12T02:56:45.947Z,3.65
2022-09-12T02:59:17.868Z,3.45
2022-09-12T03:02:00.234Z,3.95
2022-09-12T03:04:45.716Z,3.17
2022-09-12T03:07:50.960Z,3.20
2022-09-12T03:10:49.717Z,3.00
2022-09-12T03:13:22.927Z,3.33
2022-09-12T03:16:27.958Z,2.88
2022-09-12T03:19:00.673Z,2.67
2022-09-12T03:21:37.903Z,2.90
2022-09-12T03:24:24.614Z,3.13
2022-09-12T03:26:55.552Z,2.90
2022-09-12T03:29:25.295Z,3.00
2022-09-12T03:31:57.118Z,2.83
2022-09-12T03:34:26.429Z,2.85
2022-09-12T03:36:58.264Z,2.40
2022-09-12T03:39:27.019Z,2.30
2022-09-12T03:41:55.367Z,2.38
2022-09-12T03:44:22.645Z,2.22
2022-09-12T03:46:49.418Z,2.60
2022-09-12T03:49:16.705Z,2.90
2022-09-12T03:51:43.978Z,2.75
2022-09-12T03:54:11.341Z,2.30
2022-09-12T03:56:38.235Z,2.10
2022-09-12T03:59:06.910Z,1.73
2022-09-12T04:01:34.220Z,1.90
2022-09-12T04:04:01.207Z,1.35
2022-09-12T04:06:27.964Z,1.17
2022-09-12T04:08:55.686Z,1.05
2022-09-12T04:11:23.334Z,0.85
2022-09-12T04:13:50.690Z,0.88
2022-09-12T04:16:18.191Z,0.70
2022-09-12T04:18:46.034Z,0.90
2022-09-12T04:21:17.194Z,0.77
2022-09-12T04:23:44.435Z,0.50
2022-09-12T04:26:13.813Z,0.70
2022-09-12T04:28:41.487Z,0.70
2022-09-12T04:31:12.650Z,0.90
2022-09-12T04:33:40.051Z,0.77
2022-09-12T04:36:11.997Z,0.90
2022-09-12T04:38:39.242Z,1.00
2022-09-12T04:41:25.648Z,1.05
2022-09-12T04:43:55.701Z,0.60
2022-09-12T04:46:22.506Z,1.70
2022-09-12T04:48:53.370Z,1.10
2022-09-12T04:51:28.003Z,1.10
2022-09-12T04:53:57.827Z,1.00
2022-09-12T04:56:25.209Z,1.35
2022-09-12T04:58:52.337Z,1.00
2022-09-12T05:01:21.296Z,1.02
2022-09-12T05:03:56.828Z,0.80
2022-09-12T05:08:53.112Z,1.30
2022-09-12T05:11:25.582Z,1.08
2022-09-12T05:13:53.755Z,1.38
2022-09-12T05:16:22.769Z,1.02
2022-09-12T05:18:50.384Z,0.90
2022-09-12T05:21:23.246Z,1.33
2022-09-12T05:23:54.986Z,1.10
2022-09-12T05:26:23.026Z,1.00
2022-09-12T05:28:52.396Z,1.20
2022-09-12T05:31:22.568Z,1.63
2022-09-12T05:33:51.103Z,2.03
2022-09-12T05:36:28.391Z,1.95
2022-09-12T05:38:55.780Z,2.55
2022-09-12T05:41:25.674Z,1.88
2022-09-12T05:43:57.706Z,1.35
2022-09-12T05:46:30.340Z,1.23
2022-09-12T05:48:58.487Z,1.30
2022-09-12T05:51:29.323Z,1.15
2022-09-12T05:53:58.215Z,0.80
2022-09-12T05:56:27.699Z,1.35
2022-09-12T05:59:00.094Z,1.08
2022-09-12T06:01:27.850Z,1.27
2022-09-12T06:03:56.920Z,0.82
2022-09-12T06:06:25.589Z,0.70
2022-09-12T06:08:54.129Z,0.73
2022-09-12T06:11:23.530Z,0.65
2022-09-12T06:13:53.306Z,0.70
2022-09-12T06:16:22.851Z,0.50
2022-09-12T06:18:55.190Z,0.70
2022-09-12T06:21:23.821Z,0.80
2022-09-12T06:23:51.540Z,0.95
2022-09-12T06:26:21.751Z,1.00
2022-09-12T06:28:49.270Z,0.80
2022-09-12T06:31:19.311Z,1.13
2022-09-12T06:33:49.435Z,0.77
2022-09-12T06:36:30.816Z,0.95
2022-09-12T06:39:03.823Z,1.85
2022-09-12T06:41:31.954Z,1.40
2022-09-12T06:43:59.944Z,5.63
2022-09-12T06:46:27.791Z,5.32
2022-09-12T06:48:59.960Z,3.03
2022-09-12T06:51:28.455Z,3.03
2022-09-12T06:53:57.227Z,1.77
2022-09-12T06:56:26.656Z,1.23
2022-09-12T06:58:56.802Z,1.10
2022-09-12T07:01:28.695Z,0.70
2022-09-12T07:03:59.342Z,0.95
2022-09-12T07:06:31.963Z,1.45
2022-09-12T07:09:01.246Z,3.08
2022-09-12T07:11:33.637Z,2.90
2022-09-12T07:14:02.316Z,1.38
2022-09-12T07:16:30.332Z,1.50
2022-09-12T07:18:59.668Z,1.83
2022-09-12T07:21:27.943Z,1.60
2022-09-12T07:23:57.978Z,1.23
2022-09-12T07:26:29.283Z,1.08
2022-09-12T07:29:18.654Z,1.40
2022-09-12T07:31:46.613Z,0.80
2022-09-12T07:34:14.049Z,0.80
2022-09-12T07:36:41.272Z,0.90
2022-09-12T07:39:08.262Z,0.88
2022-09-12T07:41:35.385Z,0.95
2022-09-12T07:44:03.615Z,1.20
2022-09-12T07:46:31.877Z,0.70
2022-09-12T07:49:00.238Z,0.68
2022-09-12T07:51:29.215Z,0.75
2022-09-12T07:53:56.735Z,0.80
2022-09-12T07:56:31.090Z,0.50
2022-09-12T07:58:59.742Z,0.77
2022-09-12T08:01:27.117Z,0.77
2022-09-12T08:03:58.998Z,0.70
2022-09-12T08:06:27.851Z,0.75
2022-09-12T08:08:57.505Z,0.90
2022-09-12T08:11:29.244Z,0.90
2022-09-12T08:13:58.127Z,0.90
2022-09-12T08:16:27.615Z,1.40
2022-09-12T08:18:54.670Z,1.10
2022-09-12T08:21:24.016Z,0.90
2022-09-12T08:23:59.277Z,0.82
2022-09-12T08:26:26.425Z,0.95
2022-09-12T08:28:56.446Z,1.00
2022-09-12T08:31:25.211Z,0.82
2022-09-12T08:33:52.730Z,1.10
2022-09-12T08:36:21.875Z,1.10
2022-09-12T08:38:51.652Z,1.23
2022-09-12T08:41:18.430Z,0.82
2022-09-12T08:44:04.518Z,1.00
2022-09-12T08:46:51.707Z,1.25
2022-09-12T08:49:38.407Z,1.00
2022-09-12T08:52:17.499Z,1.20
2022-09-12T08:54:45.666Z,1.02
2022-09-12T08:57:17.370Z,1.15
2022-09-12T08:59:45.965Z,0.93
2022-09-12T09:02:30.861Z,1.20
2022-09-12T09:05:16.567Z,1.05
2022-09-12T09:08:11.286Z,1.00
2022-09-12T09:10:49.717Z,1.35
2022-09-12T09:13:46.743Z,1.73
2022-09-12T09:16:35.072Z,0.90
2022-09-12T09:19:14.926Z,1.33
2022-09-12T09:21:51.476Z,2.38
2022-09-12T09:24:22.218Z,1.67
2022-09-12T09:27:02.900Z,2.28
2022-09-12T09:29:39.740Z,6.72
2022-09-12T09:32:18.116Z,1.48
2022-09-12T09:34:46.103Z,1.15
2022-09-12T09:37:58.031Z,1.70
2022-09-12T09:40:51.076Z,1.63
2022-09-12T09:43:23.055Z,1.10
2022-09-12T09:45:52.052Z,1.02
2022-09-12T09:48:23.225Z,2.83
2022-09-12T09:50:50.984Z,1.00
2022-09-12T09:53:34.313Z,1.00
2022-09-12T09:56:06.014Z,1.27
2022-09-12T09:58:43.741Z,0.98
2022-09-12T10:01:19.350Z,0.80
2022-09-12T10:03:54.440Z,1.02
2022-09-12T10:06:31.058Z,1.30
2022-09-12T10:09:19.188Z,2.38
2022-09-12T10:11:47.614Z,1.17
2022-09-12T10:14:30.867Z,1.25
2022-09-12T10:16:58.982Z,2.63
2022-09-12T10:19:40.396Z,1.70
2022-09-12T10:22:15.970Z,1.45
2022-09-12T10:24:49.037Z,1.33
2022-09-12T10:27:20.975Z,1.60
2022-09-12T10:30:14.511Z,1.00
2022-09-12T10:32:48.864Z,1.80
2022-09-12T10:35:22.780Z,1.58
2022-09-12T10:37:54.686Z,2.08
2022-09-12T10:40:32.873Z,2.10
2022-09-12T10:43:01.075Z,1.67
2022-09-12T10:45:29.522Z,2.50
2022-09-12T10:48:00.580Z,2.20
2022-09-12T10:50:41.566Z,1.83
2022-09-12T10:53:31.120Z,1.80
2022-09-12T10:56:12.060Z,1.90
2022-09-12T10:58:57.755Z,1.80
2022-09-12T11:01:37.496Z,1.48
2022-09-12T11:04:23.093Z,1.40
2022-09-12T11:07:04.762Z,1.50
2022-09-12T11:10:16.215Z,1.58
2022-09-12T11:12:43.000Z,1.80
2022-09-12T11:15:43.675Z,1.80
2022-09-12T11:18:23.919Z,1.90
2022-09-12T11:21:03.216Z,1.63
2022-09-12T11:24:02.516Z,1.90
2022-09-12T11:26:35.060Z,2.08
2022-09-12T11:29:01.834Z,1.90
2022-09-12T11:31:56.191Z,1.60
2022-09-12T11:35:04.083Z,1.65
2022-09-12T11:37:52.598Z,1.52
2022-09-12T11:40:20.541Z,1.30
2022-09-12T11:42:49.681Z,1.70
2022-09-12T11:45:22.600Z,1.15
2022-09-12T11:47:55.728Z,1.30
2022-09-12T11:50:31.288Z,1.00
2022-09-12T11:53:12.500Z,1.75
2022-09-12T12:02:36.983Z,1.90
2022-09-12T12:05:16.389Z,1.95
2022-09-12T12:07:52.070Z,2.25
2022-09-12T12:10:28.001Z,2.28
2022-09-12T12:12:57.159Z,1.55
2022-09-12T12:15:25.642Z,1.60
2022-09-12T12:18:10.436Z,2.38
2022-09-12T12:20:37.576Z,2.03
2022-09-12T12:23:04.707Z,2.08
2022-09-12T12:25:57.862Z,2.22
2022-09-12T12:28:43.019Z,1.65
2022-09-12T12:31:11.376Z,1.92
2022-09-12T12:33:38.124Z,1.65
2022-09-12T12:36:08.815Z,1.90
2022-09-12T12:38:38.356Z,2.20
2022-09-12T12:41:17.285Z,3.15
2022-09-12T12:43:49.053Z,2.15
2022-09-12T12:46:24.148Z,2.38
2022-09-12T12:49:17.946Z,2.20
2022-09-12T12:51:53.547Z,2.55
2022-09-12T12:54:42.362Z,2.38
2022-09-12T12:57:24.844Z,2.13
2022-09-12T13:00:20.663Z,1.73
2022-09-12T13:03:22.971Z,2.20
2022-09-12T13:06:07.366Z,1.65
2022-09-12T13:08:39.307Z,1.77
2022-09-12T13:11:16.229Z,1.90
2022-09-12T13:13:58.399Z,1.70
2022-09-12T13:16:30.460Z,1.65
2022-09-12T13:19:02.465Z,1.73
2022-09-12T13:21:29.335Z,1.48
2022-09-12T13:24:05.557Z,1.45
2022-09-12T13:26:42.098Z,1.40
2022-09-12T13:29:17.333Z,1.50
2022-09-12T13:31:51.525Z,1.45
2022-09-12T13:34:26.922Z,1.70
2022-09-12T13:40:01.849Z,1.50
2022-09-12T13:42:48.657Z,1.67
2022-09-12T13:45:28.229Z,1.00
2022-09-12T13:48:02.369Z,1.20
2022-09-12T13:50:42.577Z,1.42
2022-09-12T13:53:16.418Z,1.50
2022-09-12T13:55:48.078Z,1.70
2022-09-12T13:58:25.881Z,1.40
2022-09-12T14:01:12.164Z,2.78
2022-09-12T14:03:59.615Z,1.52
2022-09-12T14:06:27.787Z,1.38
2022-09-12T14:09:00.394Z,1.83
2022-09-12T14:11:31.226Z,1.52
2022-09-12T14:13:58.639Z,1.60
2022-09-12T14:16:29.107Z,1.75
2022-09-12T14:18:57.246Z,2.10
2022-09-12T14:21:38.833Z,2.33
2022-09-12T14:24:19.381Z,2.13
2022-09-12T14:26:48.085Z,2.50
2022-09-12T14:29:16.911Z,2.30
2022-09-12T14:31:44.022Z,2.40
2022-09-12T14:34:16.298Z,2.35
2022-09-12T14:36:55.252Z,1.77
2022-09-12T14:39:37.987Z,1.83
2022-09-12T14:42:12.993Z,1.95
2022-09-12T14:44:51.018Z,1.42
2022-09-12T14:47:25.325Z,1.80
2022-09-12T14:49:52.543Z,1.70
2022-09-12T14:53:02.450Z,1.90
2022-09-12T14:55:31.731Z,2.47
2022-09-12T14:58:16.579Z,1.90
2022-09-12T15:00:58.127Z,2.37
2022-09-12T15:03:37.924Z,1.90
2022-09-12T15:06:08.128Z,2.35
2022-09-12T15:08:35.247Z,2.05
2022-09-12T15:11:02.082Z,2.92
2022-09-12T15:13:30.858Z,2.72
2022-09-12T15:16:00.552Z,3.33
2022-09-12T15:18:29.255Z,2.90
2022-09-12T15:21:00.932Z,2.97
2022-09-12T15:23:49.552Z,3.28
2022-09-12T15:26:19.458Z,2.95
2022-09-12T15:28:46.560Z,3.08
2022-09-12T15:31:16.439Z,4.18
2022-09-12T15:33:43.294Z,3.78
2022-09-12T15:36:14.529Z,4.30
2022-09-12T15:38:41.370Z,4.10
2022-09-12T15:41:19.725Z,4.45
2022-09-12T15:43:47.439Z,3.85
2022-09-12T15:46:16.273Z,4.22
2022-09-12T15:48:44.006Z,3.92
2022-09-12T15:51:16.656Z,5.13
2022-09-12T15:53:44.357Z,3.88
2022-09-12T15:56:11.739Z,4.50
2022-09-12T15:58:49.822Z,4.28
2022-09-12T16:01:24.531Z,5.28
2022-09-12T16:03:51.434Z,5.30
2022-09-12T16:06:18.276Z,5.10
2022-09-12T16:08:45.084Z,4.75
2022-09-12T16:11:24.157Z,4.93
2022-09-12T16:13:56.663Z,4.63
2022-09-12T16:16:24.272Z,4.85
2022-09-12T16:18:53.328Z,4.25
2022-09-12T16:21:20.208Z,4.13
2022-09-12T16:23:47.945Z,5.07
2022-09-12T16:26:15.600Z,4.47
2022-09-12T16:28:42.618Z,4.50
2022-09-12T16:31:12.675Z,4.50
2022-09-12T16:33:40.787Z,4.78
2022-09-12T16:36:12.633Z,4.22
2022-09-12T16:38:44.568Z,4.90
2022-09-12T16:41:12.555Z,4.70
2022-09-12T16:43:39.493Z,5.22
2022-09-12T16:46:09.858Z,4.78
2022-09-12T16:48:37.977Z,4.47
2022-09-12T16:51:07.024Z,4.30
2022-09-12T16:53:35.638Z,4.32
2022-09-12T16:56:02.660Z,4.53
2022-09-12T16:58:41.094Z,4.88
2022-09-12T17:01:14.480Z,4.40
2022-09-12T17:03:42.049Z,4.97
2022-09-12T17:06:14.355Z,4.75
2022-09-12T17:08:43.894Z,4.95
2022-09-12T17:11:13.079Z,4.93
2022-09-12T17:14:03.426Z,4.75
2022-09-12T17:16:28.684Z,5.20
2022-09-12T17:18:55.529Z,5.88
2022-09-12T17:21:22.976Z,4.75
2022-09-12T17:23:50.139Z,4.88
2022-09-12T17:26:17.307Z,4.70
2022-09-12T17:28:44.323Z,4.57
2022-09-12T17:31:13.587Z,4.50
2022-09-12T17:33:41.482Z,5.00
2022-09-12T17:36:14.986Z,4.32
2022-09-12T17:38:43.281Z,5.32
2022-09-12T17:41:16.075Z,4.82
2022-09-12T17:43:50.353Z,4.63
2022-09-12T17:46:19.165Z,5.05
2022-09-12T17:48:50.556Z,5.40
2022-09-12T17:51:17.597Z,5.78
2022-09-12T17:53:44.371Z,5.90
2022-09-12T17:56:12.017Z,6.15
2022-09-12T17:58:38.998Z,6.70
2022-09-12T18:01:28.782Z,6.55
2022-09-12T18:03:56.793Z,7.13
2022-09-12T18:06:24.601Z,7.00
2022-09-12T18:08:51.461Z,6.70
2022-09-12T18:11:18.410Z,7.15
2022-09-12T18:13:45.743Z,6.05
2022-09-12T18:16:14.086Z,6.68
2022-09-12T18:18:41.223Z,5.85
2022-09-12T18:21:10.392Z,5.68
2022-09-12T18:23:37.383Z,6.05
2022-09-12T18:26:07.406Z,6.15
2022-09-12T18:28:36.547Z,5.85
2022-09-12T18:31:04.348Z,5.78
2022-09-12T18:33:32.250Z,6.18
2022-09-12T18:36:07.268Z,5.60
2022-09-12T18:38:34.431Z,5.78
2022-09-12T18:41:12.236Z,6.40
2022-09-12T18:43:39.687Z,5.72
2022-09-12T18:46:18.331Z,5.55
2022-09-12T18:48:46.883Z,6.03
2022-09-12T18:51:20.105Z,6.03
2022-09-12T18:54:00.722Z,5.38
2022-09-12T18:56:32.894Z,5.30
2022-09-12T18:59:01.500Z,4.78
2022-09-12T19:01:37.178Z,5.82
2022-09-12T19:04:05.135Z,5.50
2022-09-12T19:06:39.481Z,4.60
2022-09-12T19:09:08.415Z,5.25
2022-09-12T19:11:41.073Z,5.22
2022-09-12T19:14:08.651Z,4.68
2022-09-12T19:16:35.842Z,5.03
2022-09-12T19:19:06.261Z,4.30
2022-09-12T19:21:34.596Z,5.32
2022-09-12T19:24:49.967Z,4.93
2022-09-12T19:27:40.747Z,5.13
2022-09-12T19:30:11.429Z,4.53
2022-09-12T19:32:38.668Z,5.03
2022-09-12T19:35:06.089Z,4.80
2022-09-12T19:37:33.394Z,5.05
2022-09-12T19:40:00.430Z,5.10
2022-09-12T19:42:29.611Z,4.72
2022-09-12T19:44:57.302Z,4.82
2022-09-12T19:47:33.083Z,4.80
2022-09-12T19:50:03.478Z,4.82
2022-09-12T19:53:07.089Z,4.15
2022-09-12T19:55:44.159Z,6.35
2022-09-12T19:58:32.288Z,4.38
2022-09-12T20:01:34.850Z,4.35
2022-09-12T20:05:51.566Z,3.85
2022-09-12T20:09:13.338Z,4.00
2022-09-12T20:24:03.073Z,3.47
2022-09-12T20:32:02.085Z,3.53
2022-09-12T20:42:39.065Z,3.70
2022-09-12T20:45:11.369Z,3.80
2022-09-12T20:47:46.589Z,3.72
2022-09-12T20:50:30.098Z,4.78
2022-09-12T20:53:19.515Z,3.83
2022-09-12T20:58:43.703Z,4.07
2022-09-12T21:01:22.458Z,4.40
2022-09-12T21:03:53.143Z,3.75
2022-09-12T21:06:21.017Z,4.10
2022-09-12T21:08:49.262Z,4.15
2022-09-12T21:11:19.100Z,3.83
2022-09-12T21:13:46.705Z,3.65
2022-09-12T21:16:16.099Z,4.43
2022-09-12T21:18:43.641Z,3.78
2022-09-12T21:21:12.584Z,3.72
2022-09-12T21:23:40.740Z,3.45
2022-09-12T21:26:08.476Z,3.30
2022-09-12T21:28:35.578Z,3.45
2022-09-12T21:31:03.792Z,3.80
2022-09-12T21:33:31.248Z,3.72
2022-09-12T21:36:07.451Z,3.53
2022-09-12T21:38:35.076Z,3.72
2022-09-12T21:41:20.112Z,2.90
2022-09-12T21:43:47.176Z,3.35
2022-09-12T21:46:14.449Z,3.20
2022-09-12T21:48:43.752Z,3.03
2022-09-12T21:51:16.262Z,2.83
2022-09-12T21:53:43.448Z,2.67
2022-09-12T21:56:10.650Z,3.05
2022-09-12T21:58:38.660Z,2.63
2022-09-12T22:01:06.392Z,2.70
2022-09-12T22:03:33.500Z,2.83
2022-09-12T22:06:03.266Z,2.80
2022-09-12T22:08:32.495Z,3.15
2022-09-12T22:11:00.948Z,3.15
2022-09-12T22:13:31.504Z,3.47
2022-09-12T22:15:59.067Z,3.38
2022-09-12T22:18:25.885Z,3.10
2022-09-12T22:21:00.092Z,3.78
2022-09-12T22:23:45.471Z,3.67
2022-09-12T22:26:12.770Z,4.00
2022-09-12T22:28:40.905Z,3.50
2022-09-12T22:31:13.385Z,3.83
2022-09-12T22:33:40.640Z,3.40
2022-09-12T22:36:08.134Z,3.20
2022-09-12T22:38:34.920Z,3.95
2022-09-12T22:41:10.480Z,3.58
2022-09-12T22:43:37.661Z,3.75
2022-09-12T22:46:08.943Z,3.35
2022-09-12T22:48:37.431Z,3.53
2022-09-12T22:51:04.979Z,3.13
2022-09-12T22:53:32.102Z,3.47
2022-09-12T22:55:59.040Z,3.15
2022-09-12T22:58:25.853Z,3.22
2022-09-12T23:00:52.731Z,3.50
2022-09-12T23:03:20.477Z,3.33
2022-09-12T23:05:48.994Z,3.65
2022-09-12T23:08:17.281Z,3.10
2022-09-12T23:10:44.154Z,3.55
2022-09-12T23:13:11.705Z,3.58
2022-09-12T23:15:38.765Z,3.60
2022-09-12T23:18:05.624Z,3.75
2022-09-12T23:20:32.436Z,3.42
2022-09-12T23:22:59.273Z,3.70
2022-09-12T23:25:26.332Z,4.03
2022-09-12T23:27:53.580Z,3.70
2022-09-12T23:30:21.552Z,3.80
2022-09-12T23:32:49.266Z,3.65
2022-09-12T23:35:19.796Z,3.45
2022-09-12T23:37:47.266Z,3.45
2022-09-12T23:40:14.276Z,3.92
2022-09-12T23:42:41.499Z,4.03
2022-09-12T23:45:08.511Z,3.50
2022-09-12T23:47:35.500Z,4.07
2022-09-12T23:50:02.202Z,4.30
2022-09-12T23:52:29.775Z,4.20
2022-09-12T23:54:56.608Z,3.95
2022-09-12T23:57:23.549Z,4.22
2022-09-12T23:59:50.253Z,4.57
